Airport ID:KJTC
Update Time (UTC):27/05/2024 12:57
Wind Speed (Knots):4
Wind Direction (Magnetic):190
Temperature (°C):9
Dew Point (°C):-9
Humidity (%):30
Altimeter (inHg):30.27
Density Altitude (Feet):
Visibility:10+
Clouds (Hundreds of feet):CLR
Present Weather:
METAR:METAR KJTC 271255Z AUTO 20005KT 10SM CLR 08/M09 A3027 RMK AO2

The data displayed is for advisory purposes only and is not to be used for flight planning or operations.